createdAt,value
2022-08-19T00:00:22.227Z,22.10
2022-08-19T00:02:51.056Z,22.10
2022-08-19T00:05:19.816Z,22.00
2022-08-19T00:07:49.451Z,22.00
2022-08-19T00:10:24.657Z,22.00
2022-08-19T00:12:51.854Z,22.00
2022-08-19T00:15:20.955Z,22.00
2022-08-19T00:17:48.460Z,22.00
2022-08-19T00:20:20.932Z,22.00
2022-08-19T00:22:52.180Z,22.00
2022-08-19T00:25:19.336Z,22.00
2022-08-19T00:27:58.673Z,22.00
2022-08-19T00:30:27.758Z,21.90
2022-08-19T00:32:56.570Z,21.90
2022-08-19T00:35:23.297Z,21.90
2022-08-19T00:37:49.951Z,22.00
2022-08-19T00:40:20.446Z,22.00
2022-08-19T00:42:49.300Z,22.00
2022-08-19T00:45:20.512Z,22.00
2022-08-19T00:47:47.241Z,22.00
2022-08-19T00:50:19.439Z,22.00
2022-08-19T00:52:51.623Z,22.00
2022-08-19T00:55:20.749Z,22.00
2022-08-19T00:57:55.524Z,22.00
2022-08-19T01:03:14.973Z,22.00
2022-08-19T01:05:45.449Z,21.90
2022-08-19T01:08:14.111Z,21.90
2022-08-19T01:11:10.400Z,21.90
2022-08-19T01:13:49.236Z,21.90
2022-08-19T01:16:20.634Z,21.90
2022-08-19T01:18:48.531Z,21.90
2022-08-19T01:21:33.355Z,21.80
2022-08-19T01:26:47.087Z,21.60
2022-08-19T01:29:18.547Z,21.60
2022-08-19T01:31:52.342Z,21.60
2022-08-19T01:34:24.100Z,21.60
2022-08-19T01:37:16.065Z,21.60
2022-08-19T01:39:56.961Z,21.60
2022-08-19T01:42:30.602Z,21.70
2022-08-19T01:45:01.573Z,21.70
2022-08-19T01:47:29.646Z,21.70
2022-08-19T01:49:58.263Z,21.70
2022-08-19T01:52:25.545Z,21.70
2022-08-19T01:55:04.557Z,21.70
2022-08-19T01:57:31.379Z,21.70
2022-08-19T02:00:05.941Z,21.70
2022-08-19T02:02:44.165Z,21.60
2022-08-19T02:05:37.051Z,21.60
2022-08-19T02:08:05.819Z,21.60
2022-08-19T02:10:36.441Z,21.60
2022-08-19T02:13:03.289Z,21.60
2022-08-19T02:15:55.666Z,21.60
2022-08-19T02:18:27.973Z,21.60
2022-08-19T02:20:55.491Z,21.60
2022-08-19T02:23:22.267Z,21.60
2022-08-19T02:26:18.485Z,21.60
2022-08-19T02:40:21.631Z,21.50
2022-08-19T02:42:48.863Z,21.50
2022-08-19T02:45:16.387Z,21.50
2022-08-19T02:47:43.279Z,21.50
2022-08-19T02:50:10.149Z,21.50
2022-08-19T02:52:36.797Z,21.50
2022-08-19T02:55:06.924Z,21.50
2022-08-19T02:57:34.516Z,21.40
2022-08-19T03:00:01.956Z,21.40
2022-08-19T03:02:31.613Z,21.40
2022-08-19T03:05:04.686Z,21.40
2022-08-19T03:07:34.015Z,21.40
2022-08-19T03:10:00.802Z,21.40
2022-08-19T03:12:37.126Z,21.40
2022-08-19T03:15:08.182Z,21.40
2022-08-19T03:17:37.618Z,21.30
2022-08-19T03:20:07.430Z,21.30
2022-08-19T03:22:40.039Z,21.30
2022-08-19T03:28:02.803Z,21.30
2022-08-19T03:30:32.366Z,21.30
2022-08-19T03:35:42.692Z,21.20
2022-08-19T03:38:11.629Z,21.20
2022-08-19T03:44:18.905Z,21.20
2022-08-19T03:47:16.276Z,21.20
2022-08-19T03:49:43.619Z,21.20
2022-08-19T03:52:45.376Z,21.10
2022-08-19T03:58:26.317Z,21.10
2022-08-19T04:00:54.718Z,21.10
2022-08-19T04:03:37.654Z,21.10
2022-08-19T04:06:12.858Z,21.10
2022-08-19T04:08:48.329Z,21.10
2022-08-19T04:11:17.942Z,21.00
2022-08-19T04:13:46.191Z,21.00
2022-08-19T04:16:15.495Z,20.90
2022-08-19T04:18:42.908Z,20.90
2022-08-19T04:21:25.680Z,20.90
2022-08-19T04:23:53.131Z,20.80
2022-08-19T04:26:28.685Z,20.80
2022-08-19T04:28:55.861Z,20.80
2022-08-19T04:35:02.391Z,20.80
2022-08-19T04:37:40.303Z,20.80
2022-08-19T04:40:27.516Z,20.80
2022-08-19T04:43:01.835Z,20.80
2022-08-19T04:45:28.502Z,20.80
2022-08-19T04:48:26.547Z,20.80
2022-08-19T04:57:50.729Z,20.90
2022-08-19T05:00:20.331Z,20.90
2022-08-19T05:02:52.075Z,20.90
2022-08-19T05:05:31.665Z,21.00
2022-08-19T05:11:26.312Z,21.00
2022-08-19T05:13:53.334Z,21.00
2022-08-19T05:16:25.928Z,21.00
2022-08-19T05:19:12.215Z,21.00
2022-08-19T05:25:14.543Z,21.00
2022-08-19T05:27:42.168Z,21.00
2022-08-19T05:33:09.627Z,21.00
2022-08-19T05:35:50.200Z,21.00
2022-08-19T05:43:50.407Z,20.90
2022-08-19T05:46:52.811Z,21.00
2022-08-19T05:49:25.997Z,21.00
2022-08-19T05:51:55.766Z,21.00
2022-08-19T05:57:29.120Z,21.10
2022-08-19T05:59:58.548Z,21.10
2022-08-19T06:02:51.434Z,21.10
2022-08-19T06:05:21.517Z,21.10
2022-08-19T06:07:51.931Z,21.10
2022-08-19T06:10:18.754Z,21.20
2022-08-19T06:12:48.942Z,21.20
2022-08-19T06:15:15.808Z,21.20
2022-08-19T06:17:48.165Z,21.20
2022-08-19T06:20:20.288Z,21.30
2022-08-19T06:23:01.744Z,21.30
2022-08-19T06:25:37.959Z,21.30
2022-08-19T06:28:34.835Z,21.40
2022-08-19T06:31:29.553Z,21.50
2022-08-19T06:33:56.223Z,21.60
2022-08-19T06:36:37.518Z,21.60
2022-08-19T06:39:35.246Z,21.60
2022-08-19T06:42:34.083Z,21.70
2022-08-19T06:45:09.216Z,21.70
2022-08-19T06:48:04.881Z,21.70
2022-08-19T06:50:34.932Z,21.80
2022-08-19T06:53:06.201Z,21.80
2022-08-19T06:55:35.272Z,21.80
2022-08-19T06:58:04.053Z,21.90
2022-08-19T07:00:37.016Z,21.90
2022-08-19T07:03:07.717Z,22.00
2022-08-19T07:05:45.780Z,22.10
2022-08-19T07:08:13.981Z,22.10
2022-08-19T07:10:44.655Z,22.10
2022-08-19T07:13:11.830Z,22.10
2022-08-19T07:15:39.819Z,22.20
2022-08-19T07:18:06.577Z,22.30
2022-08-19T07:20:34.587Z,22.30
2022-08-19T07:23:07.114Z,22.40
2022-08-19T07:25:37.541Z,22.40
2022-08-19T07:28:05.041Z,22.50
2022-08-19T07:31:22.716Z,22.60
2022-08-19T07:33:53.300Z,22.70
2022-08-19T07:36:25.359Z,22.80
2022-08-19T07:39:23.985Z,22.90
2022-08-19T07:41:51.074Z,22.90
2022-08-19T07:44:18.857Z,22.90
2022-08-19T07:46:51.550Z,22.90
2022-08-19T07:49:20.834Z,22.80
2022-08-19T07:51:53.943Z,22.90
2022-08-19T07:54:27.496Z,22.90
2022-08-19T07:56:54.923Z,22.90
2022-08-19T07:59:26.989Z,23.00
2022-08-19T08:01:54.126Z,23.10
2022-08-19T08:04:40.132Z,23.20
2022-08-19T08:07:31.549Z,23.30
2022-08-19T08:09:59.788Z,23.50
2022-08-19T08:12:42.196Z,23.60
2022-08-19T08:15:16.642Z,23.70
2022-08-19T08:17:51.478Z,23.80
2022-08-19T08:20:22.099Z,23.80
2022-08-19T08:23:09.691Z,23.90
2022-08-19T08:25:41.044Z,24.00
2022-08-19T08:28:09.306Z,24.20
2022-08-19T08:30:41.669Z,24.40
2022-08-19T08:33:34.371Z,24.60
2022-08-19T08:36:09.079Z,24.70
2022-08-19T08:38:43.387Z,24.80
2022-08-19T08:42:02.072Z,24.90
2022-08-19T08:44:37.143Z,25.10
2022-08-19T08:47:12.757Z,25.10
2022-08-19T08:49:45.334Z,25.20
2022-08-19T08:52:23.140Z,25.20
2022-08-19T08:54:59.700Z,25.20
2022-08-19T08:57:59.575Z,25.30
2022-08-19T09:00:33.193Z,25.50
2022-08-19T09:03:03.550Z,25.80
2022-08-19T09:05:50.166Z,26.10
2022-08-19T09:08:56.589Z,26.30
2022-08-19T09:11:42.520Z,26.40
2022-08-19T09:14:47.451Z,26.50
2022-08-19T09:17:14.139Z,26.80
2022-08-19T09:20:02.545Z,27.00
2022-08-19T09:22:55.025Z,27.20
2022-08-19T09:25:29.420Z,27.40
2022-08-19T09:28:05.877Z,27.30
2022-08-19T09:31:09.539Z,27.20
2022-08-19T09:33:36.340Z,27.00
2022-08-19T09:36:08.833Z,26.90
2022-08-19T09:38:37.154Z,26.90
2022-08-19T09:41:16.894Z,27.00
2022-08-19T09:43:52.262Z,27.00
2022-08-19T09:46:47.176Z,27.10
2022-08-19T09:49:19.389Z,27.20
2022-08-19T09:51:51.401Z,27.20
2022-08-19T09:54:23.480Z,27.20
2022-08-19T09:56:55.431Z,27.40
2022-08-19T09:59:22.616Z,27.70
2022-08-19T10:01:49.525Z,27.90
2022-08-19T10:04:20.012Z,28.00
2022-08-19T10:06:53.466Z,28.10
2022-08-19T10:09:49.314Z,28.10
2022-08-19T10:12:16.015Z,28.10
2022-08-19T10:14:51.312Z,28.10
2022-08-19T10:17:21.428Z,28.20
2022-08-19T10:19:55.611Z,28.20
2022-08-19T10:22:27.253Z,27.90
2022-08-19T10:24:54.434Z,27.70
2022-08-19T10:27:27.460Z,27.70
2022-08-19T10:30:00.127Z,27.70
2022-08-19T10:32:33.807Z,27.70
2022-08-19T10:35:06.237Z,27.70
2022-08-19T10:37:37.198Z,27.80
2022-08-19T10:40:24.496Z,28.10
2022-08-19T10:43:18.244Z,28.20
2022-08-19T10:45:52.863Z,28.30
2022-08-19T10:51:36.616Z,28.30
2022-08-19T10:54:32.134Z,28.30
2022-08-19T10:57:00.371Z,28.10
2022-08-19T10:59:33.803Z,28.30
2022-08-19T11:02:45.395Z,28.70
2022-08-19T11:05:13.693Z,29.10
2022-08-19T11:08:22.333Z,29.30
2022-08-19T11:10:55.597Z,29.30
2022-08-19T11:13:23.407Z,29.50
2022-08-19T11:16:07.061Z,29.70
2022-08-19T11:18:40.747Z,30.00
2022-08-19T11:21:21.201Z,30.40
2022-08-19T11:23:53.201Z,30.50
2022-08-19T11:26:22.905Z,30.50
2022-08-19T11:28:55.398Z,30.50
2022-08-19T11:31:29.244Z,30.40
2022-08-19T11:33:57.867Z,30.10
2022-08-19T11:36:30.699Z,30.10
2022-08-19T11:39:01.891Z,30.00
2022-08-19T11:41:54.396Z,29.90
2022-08-19T11:44:21.131Z,29.80
2022-08-19T11:46:47.926Z,29.80
2022-08-19T11:49:16.558Z,29.90
2022-08-19T11:51:43.563Z,29.90
2022-08-19T11:54:11.092Z,30.00
2022-08-19T11:56:39.066Z,30.10
2022-08-19T11:59:10.490Z,30.40
2022-08-19T12:01:42.757Z,30.50
2022-08-19T12:04:13.812Z,30.60
2022-08-19T12:06:41.389Z,30.40
2022-08-19T12:09:11.269Z,30.20
2022-08-19T12:11:40.907Z,30.20
2022-08-19T12:14:14.504Z,30.30
2022-08-19T12:16:48.669Z,30.50
2022-08-19T12:22:28.539Z,31.00
2022-08-19T12:28:04.070Z,30.90
2022-08-19T12:30:34.449Z,30.80
2022-08-19T12:33:05.050Z,30.60
2022-08-19T12:35:32.107Z,30.50
2022-08-19T12:38:00.196Z,30.50
2022-08-19T12:43:20.688Z,30.20
2022-08-19T12:45:51.498Z,30.10
2022-08-19T12:48:33.899Z,30.00
2022-08-19T12:51:12.500Z,30.00
2022-08-19T12:53:40.197Z,30.10
2022-08-19T12:56:12.543Z,30.30
2022-08-19T12:58:41.902Z,30.40
2022-08-19T13:01:17.556Z,30.40
2022-08-19T13:04:16.133Z,30.10
2022-08-19T13:09:42.788Z,29.50
2022-08-19T13:15:11.218Z,29.20
2022-08-19T13:17:39.027Z,29.20
2022-08-19T13:33:56.424Z,29.50
2022-08-19T13:36:37.806Z,29.20
2022-08-19T13:39:08.632Z,29.00
2022-08-19T13:41:46.583Z,28.90
2022-08-19T13:44:14.003Z,28.70
2022-08-19T13:46:44.815Z,28.50
2022-08-19T13:49:15.388Z,28.40
2022-08-19T13:51:43.484Z,28.40
2022-08-19T13:54:12.245Z,28.30
2022-08-19T13:56:44.971Z,28.30
2022-08-19T13:59:17.993Z,28.30
2022-08-19T14:01:45.353Z,28.30
2022-08-19T14:04:11.997Z,28.30
2022-08-19T14:06:40.768Z,28.40
2022-08-19T14:09:17.920Z,28.40
2022-08-19T14:18:00.942Z,28.80
2022-08-19T14:20:29.798Z,28.90
2022-08-19T14:22:59.578Z,28.80
2022-08-19T14:25:30.922Z,29.10
2022-08-19T14:27:59.841Z,29.30
2022-08-19T14:30:33.548Z,29.50
2022-08-19T14:35:45.159Z,29.60
2022-08-19T14:41:56.711Z,29.60
2022-08-19T14:44:24.671Z,29.40
2022-08-19T14:46:52.307Z,29.30
2022-08-19T14:49:22.462Z,29.30
2022-08-19T14:55:17.840Z,29.30
2022-08-19T15:00:37.064Z,29.40
2022-08-19T15:03:06.147Z,29.40
2022-08-19T15:05:35.946Z,29.40
2022-08-19T15:08:06.529Z,29.50
2022-08-19T15:10:59.728Z,29.50
2022-08-19T15:17:05.036Z,29.50
2022-08-19T15:19:33.507Z,29.60
2022-08-19T15:22:08.866Z,29.60
2022-08-19T15:24:36.756Z,29.70
2022-08-19T15:27:16.329Z,29.70
2022-08-19T15:29:49.388Z,29.70
2022-08-19T15:32:23.507Z,29.70
2022-08-19T15:34:50.162Z,29.60
2022-08-19T15:43:13.967Z,29.60
2022-08-19T15:46:12.711Z,29.60
2022-08-19T15:49:18.819Z,29.50
2022-08-19T15:52:18.834Z,29.40
2022-08-19T15:54:51.299Z,29.30
2022-08-19T16:06:29.839Z,29.00
2022-08-19T16:09:03.797Z,28.90
2022-08-19T16:11:39.148Z,28.90
2022-08-19T16:14:17.787Z,28.80
2022-08-19T16:16:56.053Z,28.80
2022-08-19T16:19:23.655Z,28.80
2022-08-19T16:22:17.889Z,28.90
2022-08-19T16:24:47.122Z,28.90
2022-08-19T16:28:08.840Z,28.90
2022-08-19T16:30:38.622Z,28.80
2022-08-19T16:33:06.567Z,28.80
2022-08-19T16:35:33.588Z,28.80
2022-08-19T16:38:02.355Z,28.70
2022-08-19T16:40:29.249Z,28.70
2022-08-19T16:42:58.273Z,28.60
2022-08-19T16:45:24.933Z,28.60
2022-08-19T16:47:51.556Z,28.60
2022-08-19T16:50:29.221Z,28.50
2022-08-19T16:53:09.105Z,28.50
2022-08-19T16:55:40.432Z,28.50
2022-08-19T16:58:08.904Z,28.50
2022-08-19T17:03:36.249Z,28.60
2022-08-19T17:06:17.692Z,28.70
2022-08-19T17:08:50.916Z,28.70
2022-08-19T17:11:19.479Z,28.70
2022-08-19T17:13:49.571Z,28.70
2022-08-19T17:16:30.985Z,28.70
2022-08-19T17:19:04.460Z,28.70
2022-08-19T17:21:43.945Z,28.70
2022-08-19T17:24:43.022Z,28.70
2022-08-19T17:27:12.614Z,28.60
2022-08-19T17:29:45.100Z,28.60
2022-08-19T17:32:17.650Z,28.50
2022-08-19T17:34:56.920Z,28.40
2022-08-19T17:37:29.192Z,28.20
2022-08-19T17:40:05.621Z,28.10
2022-08-19T17:42:35.948Z,27.90
2022-08-19T17:45:05.282Z,27.80
2022-08-19T17:47:34.252Z,27.70
2022-08-19T17:50:03.429Z,27.70
2022-08-19T17:52:33.432Z,27.60
2022-08-19T17:55:01.935Z,27.60
2022-08-19T17:57:29.941Z,27.50
2022-08-19T17:59:59.265Z,27.40
2022-08-19T18:02:27.579Z,27.30
2022-08-19T18:05:04.029Z,27.30
2022-08-19T18:07:33.536Z,27.10
2022-08-19T18:10:06.044Z,27.00
2022-08-19T18:12:43.458Z,26.90
2022-08-19T18:15:16.709Z,26.90
2022-08-19T18:17:46.125Z,26.70
2022-08-19T18:20:15.634Z,26.70
2022-08-19T18:22:45.146Z,26.50
2022-08-19T18:25:27.049Z,26.50
2022-08-19T18:28:01.902Z,26.40
2022-08-19T18:31:22.773Z,26.30
2022-08-19T18:34:02.305Z,26.30
2022-08-19T18:36:53.066Z,26.20
2022-08-19T18:39:53.094Z,26.10
2022-08-19T18:42:41.088Z,26.00
2022-08-19T18:45:32.088Z,25.90
2022-08-19T18:48:27.322Z,25.90
2022-08-19T18:51:01.240Z,25.80
2022-08-19T18:53:32.791Z,25.70
2022-08-19T18:56:01.536Z,25.70
2022-08-19T18:58:33.970Z,25.60
2022-08-19T19:01:23.278Z,25.50
2022-08-19T19:03:54.336Z,25.60
2022-08-19T19:06:29.078Z,25.50
2022-08-19T19:08:57.544Z,25.60
2022-08-19T19:11:33.090Z,25.50
2022-08-19T19:14:01.794Z,25.50
2022-08-19T19:16:30.155Z,25.30
2022-08-19T19:19:07.159Z,25.30
2022-08-19T19:21:36.244Z,25.20
2022-08-19T19:24:08.225Z,25.10
2022-08-19T19:26:38.274Z,25.10
2022-08-19T19:29:05.900Z,25.00
2022-08-19T19:31:32.846Z,25.00
2022-08-19T19:33:59.922Z,24.90
2022-08-19T19:36:26.621Z,24.90
2022-08-19T19:38:55.820Z,24.90
2022-08-19T19:41:23.960Z,24.80
2022-08-19T19:44:16.468Z,24.80
2022-08-19T19:46:46.196Z,24.80
2022-08-19T19:49:15.956Z,24.70
2022-08-19T19:51:48.240Z,24.70
2022-08-19T19:54:22.966Z,24.70
2022-08-19T19:56:53.186Z,24.60
2022-08-19T19:59:20.422Z,24.60
2022-08-19T20:01:49.882Z,24.70
2022-08-19T20:04:21.581Z,24.60
2022-08-19T20:06:50.400Z,24.60
2022-08-19T20:09:20.587Z,24.60
2022-08-19T20:11:53.430Z,24.50
2022-08-19T20:14:34.995Z,24.50
2022-08-19T20:17:03.760Z,24.40
2022-08-19T20:19:33.500Z,24.40
2022-08-19T20:22:00.753Z,24.30
2022-08-19T20:24:34.501Z,24.30
2022-08-19T20:27:03.439Z,24.30
2022-08-19T20:29:44.228Z,24.30
2022-08-19T20:32:14.905Z,24.20
2022-08-19T20:43:46.885Z,24.20
2022-08-19T20:46:16.184Z,24.10
2022-08-19T20:48:42.853Z,24.10
2022-08-19T20:51:11.220Z,24.00
2022-08-19T20:53:41.680Z,24.10
2022-08-19T20:56:33.397Z,24.00
2022-08-19T20:59:03.557Z,24.00
2022-08-19T21:01:30.220Z,24.00
2022-08-19T21:04:02.322Z,24.00
2022-08-19T21:06:28.924Z,23.90
2022-08-19T21:08:56.156Z,23.90
2022-08-19T21:11:23.036Z,23.90
2022-08-19T21:13:58.202Z,23.80
2022-08-19T21:16:31.786Z,23.80
2022-08-19T21:19:01.663Z,23.70
2022-08-19T21:21:32.328Z,23.70
2022-08-19T21:24:03.604Z,23.70
2022-08-19T21:26:35.545Z,23.70
2022-08-19T21:29:03.394Z,23.70
2022-08-19T21:31:35.188Z,23.60
2022-08-19T21:34:04.626Z,23.60
2022-08-19T21:36:31.628Z,23.50
2022-08-19T21:38:58.758Z,23.50
2022-08-19T21:41:26.695Z,23.40
2022-08-19T21:43:54.408Z,23.30
2022-08-19T21:46:21.909Z,23.30
2022-08-19T21:48:48.580Z,23.20
2022-08-19T21:54:08.041Z,23.20
2022-08-19T21:56:43.682Z,23.10
2022-08-19T21:59:12.767Z,23.00
2022-08-19T22:01:39.456Z,23.00
2022-08-19T22:06:55.547Z,22.90
2022-08-19T22:09:22.190Z,22.90
2022-08-19T22:12:20.043Z,22.80
2022-08-19T22:14:46.758Z,22.80
2022-08-19T22:17:24.959Z,22.80
2022-08-19T22:19:57.768Z,22.70
2022-08-19T22:22:27.670Z,22.70
2022-08-19T22:25:03.600Z,22.60
2022-08-19T22:27:30.702Z,22.60
2022-08-19T22:32:48.794Z,22.50
2022-08-19T22:35:25.150Z,22.50
2022-08-19T22:38:24.463Z,22.40
2022-08-19T22:40:58.577Z,22.40
2022-08-19T22:43:58.491Z,22.40
2022-08-19T22:46:25.220Z,22.40
2022-08-19T22:48:56.643Z,22.30
2022-08-19T22:54:47.624Z,22.20
2022-08-19T22:57:22.857Z,22.20
2022-08-19T22:59:51.365Z,22.10
2022-08-19T23:02:30.643Z,22.10
2022-08-19T23:05:03.519Z,22.10
2022-08-19T23:07:32.789Z,22.10
2022-08-19T23:10:05.724Z,22.00
2022-08-19T23:12:40.499Z,22.00
2022-08-19T23:15:11.747Z,21.90
2022-08-19T23:17:43.958Z,21.90
2022-08-19T23:23:32.400Z,21.80
2022-08-19T23:26:01.595Z,21.80
2022-08-19T23:28:49.442Z,21.80
2022-08-19T23:31:24.765Z,21.80
2022-08-19T23:33:55.426Z,21.70
2022-08-19T23:39:17.092Z,21.70
2022-08-19T23:41:43.712Z,21.60
2022-08-19T23:44:14.493Z,21.60
2022-08-19T23:46:54.540Z,21.50
2022-08-19T23:49:27.709Z,21.50
2022-08-19T23:52:30.585Z,21.50
2022-08-19T23:55:07.981Z,21.40
2022-08-19T23:57:38.734Z,21.40
